This is the latest recevied weather packets stored in our database for station/object VU3IZK-13. If no packets are shown the sender has not sent any weather packets the latest 10 day(s).
| Time | Temp. | Humidity | Pressure | Rain* | Wind** | Luminosity | Snow |
|---|---|---|---|---|---|---|---|
| 1777649419 | 25° C | 77% | 0 hPa | 0 mm | - | - | - |
| 1777648537 | 25° C | 76% | 0 hPa | 0 mm | - | - | - |
| 1777646717 | 25.56° C | 72% | 0 hPa | 0 mm | - | - | - |
| 1777645840 | 26.11° C | 70% | 0 hPa | 0 mm | - | - | - |
| 1777644940 | 26.11° C | 68% | 0 hPa | 0 mm | - | - | - |
| 1777643116 | 26.67° C | 64% | 0 hPa | 0 mm | - | - | - |
| 1777642237 | 27.22° C | 61% | 0 hPa | 0 mm | - | - | - |
| 1777641318 | 27.78° C | 57% | 0 hPa | 0 mm | - | - | - |
| 1777638636 | 30.56° C | 47% | 0 hPa | 0 mm | - | - | - |
| 1777635013 | 32.22° C | 44% | 0 hPa | 0 mm | - | - | - |
| 1777634112 | 32.22° C | 42% | 0 hPa | 0 mm | - | - | - |
| 1777633231 | 33.33° C | 40% | 0 hPa | 0 mm | - | - | - |
| 1777632331 | 33.89° C | 37% | 0 hPa | 0 mm | - | - | - |
| 1777631448 | 33.89° C | 37% | 0 hPa | 0 mm | - | - | - |
| 1777629625 | 33.89° C | 36% | 0 hPa | 0 mm | - | - | - |
| 1777627847 | 33.33° C | 36% | 0 hPa | 0 mm | - | - | - |
| 1777626924 | 33.89° C | 40% | 0 hPa | 0 mm | - | - | - |
| 1777626003 | 34.44° C | 36% | 0 hPa | 0 mm | - | - | - |
| 1777625103 | 33.89° C | 38% | 0 hPa | 0 mm | - | - | - |
| 1777624221 | 33.89° C | 39% | 0 hPa | 0 mm | - | - | - |
| 1777623319 | 33.33° C | 40% | 0 hPa | 0 mm | - | - | - |
| 1777622440 | 33.33° C | 39% | 0 hPa | 0 mm | - | - | - |
| 1777620619 | 33.33° C | 42% | 0 hPa | 0 mm | - | - | - |
| 1777619720 | 32.78° C | 39% | 0 hPa | 0 mm | - | - | - |
| 1777618842 | 32.22° C | 48% | 0 hPa | 0 mm | - | - | - |
* Rain latest hour (hover to see other rain measurements)
** Current wind speed in m/s (hover to see current wind gust speed)